Time;durP1;ratioP1;P1;durP2;ratioP2;P2;SDS_P1;SDS_P2;PMS_P1;PMS_P2;Temp;Humidity;BMP_temperature;BMP_pressure;BME280_temperature;BME280_humidity;BME280_pressure;Samples;Min_cycle;Max_cycle;Signal;HPM_P1;HPM_P2
2022/11/27 00:00:10;;;;;;;;;;;5.20;98.30;;;;;;5101497;28;19927;-79
2022/11/27 00:02:37;;;;;;;;;;;5.20;98.30;;;;;;5108101;28;19954;-78
2022/11/27 00:05:05;;;;;;;;;;;5.20;98.30;;;;;;5104679;28;19928;-79
2022/11/27 00:07:32;;;;;;;;;;;5.20;98.30;;;;;;5098477;28;19943;-78
2022/11/27 00:09:58;;;;;;;;;;;5.20;98.30;;;;;;5106671;28;19935;-78
2022/11/27 00:12:25;;;;;;;;;;;5.10;98.30;;;;;;5106489;28;19928;-79
2022/11/27 00:14:51;;;;;;;;;;;5.10;98.30;;;;;;5108585;28;19932;-79
2022/11/27 00:17:18;;;;;;;;;;;5.10;98.30;;;;;;5104367;28;20009;-79
2022/11/27 00:19:44;;;;;;;;;;;5.10;98.30;;;;;;5103954;28;19927;-81
2022/11/27 00:22:12;;;;;;;;;;;5.10;98.30;;;;;;5097157;28;19928;-79
2022/11/27 00:24:39;;;;;;;;;;;5.10;98.40;;;;;;5094607;28;19935;-78
2022/11/27 00:27:05;;;;;;;;;;;5.10;98.40;;;;;;5095483;28;19935;-78
2022/11/27 00:29:32;;;;;;;;;;;5.10;98.40;;;;;;5100123;28;19928;-79
2022/11/27 00:31:59;;;;;;;;;;;5.10;98.40;;;;;;5105315;28;19932;-79
2022/11/27 00:34:25;;;;;;;;;;;5.10;98.40;;;;;;5103960;28;19927;-79
2022/11/27 00:36:52;;;;;;;;;;;5.00;98.40;;;;;;5103280;28;20009;-79
2022/11/27 00:39:20;;;;;;;;;;;5.00;98.40;;;;;;5101448;28;19928;-79
2022/11/27 00:41:46;;;;;;;;;;;5.10;98.50;;;;;;5100277;28;19939;-79
2022/11/27 00:44:13;;;;;;;;;;;5.10;98.40;;;;;;5105662;28;19928;-79
2022/11/27 00:46:40;;;;;;;;;;;5.00;98.40;;;;;;5096677;27;19935;-78
2022/11/27 00:49:07;;;;;;;;;;;5.00;98.40;;;;;;5100003;28;19958;-79
2022/11/27 00:51:34;;;;;;;;;;;5.00;98.40;;;;;;5101669;28;19928;-78
2022/11/27 00:54:01;;;;;;;;;;;5.00;98.40;;;;;;5094867;28;19931;-79
2022/11/27 00:56:30;;;;;;;;;;;5.00;98.40;;;;;;5103643;28;19935;-78
2022/11/27 00:58:56;;;;;;;;;;;5.00;98.40;;;;;;5096035;28;19932;-79
2022/11/27 01:01:24;;;;;;;;;;;5.00;98.40;;;;;;5103543;28;19946;-78
2022/11/27 01:03:50;;;;;;;;;;;5.00;98.40;;;;;;5097764;27;19924;-77
2022/11/27 01:06:18;;;;;;;;;;;4.90;98.40;;;;;;5092915;28;19928;-78
2022/11/27 01:08:45;;;;;;;;;;;4.90;98.40;;;;;;5098466;27;19939;-79
2022/11/27 01:11:13;;;;;;;;;;;4.90;98.40;;;;;;5102875;28;19928;-78
2022/11/27 01:13:41;;;;;;;;;;;4.90;98.30;;;;;;5104505;28;20022;-79
2022/11/27 01:16:08;;;;;;;;;;;4.90;98.30;;;;;;5096027;27;20280;-79
2022/11/27 01:18:36;;;;;;;;;;;4.90;98.30;;;;;;5098255;28;19940;-77
2022/11/27 01:21:03;;;;;;;;;;;4.90;98.30;;;;;;5092924;28;19928;-78
2022/11/27 01:23:30;;;;;;;;;;;4.90;98.30;;;;;;5101631;28;19935;-77
2022/11/27 01:25:57;;;;;;;;;;;4.80;98.30;;;;;;5101487;28;20399;-79
2022/11/27 01:28:24;;;;;;;;;;;4.80;98.30;;;;;;5100522;28;20299;-78
2022/11/27 01:30:52;;;;;;;;;;;4.80;98.30;;;;;;5103679;28;19927;-79
2022/11/27 01:33:18;;;;;;;;;;;4.80;98.30;;;;;;5098212;28;19931;-79
2022/11/27 01:35:52;;;;;;;;;;;4.80;98.30;;;;;;5102710;28;19977;-79
2022/11/27 01:38:19;;;;;;;;;;;4.70;98.20;;;;;;5100264;28;19931;-79
2022/11/27 01:40:45;;;;;;;;;;;4.70;98.20;;;;;;5101697;28;19932;-79
2022/11/27 01:43:14;;;;;;;;;;;4.70;98.20;;;;;;5097437;28;19927;-79
2022/11/27 01:45:41;;;;;;;;;;;4.70;98.20;;;;;;5100469;28;19928;-79
2022/11/27 01:48:11;;;;;;;;;;;4.70;98.20;;;;;;5099889;28;19935;-78
2022/11/27 01:50:39;;;;;;;;;;;4.70;98.20;;;;;;5095237;28;19932;-79
2022/11/27 01:53:06;;;;;;;;;;;4.70;98.20;;;;;;5097831;28;19965;-78
2022/11/27 01:55:35;;;;;;;;;;;4.70;98.20;;;;;;5094967;28;19928;-79
2022/11/27 01:58:04;;;;;;;;;;;4.60;98.10;;;;;;5092666;28;19928;-79
2022/11/27 02:00:31;;;;;;;;;;;4.60;98.10;;;;;;5100709;28;19932;-80
2022/11/27 02:02:57;;;;;;;;;;;4.60;98.20;;;;;;5091745;28;19934;-79
2022/11/27 02:05:27;;;;;;;;;;;4.60;98.20;;;;;;5090828;28;19928;-79
2022/11/27 02:07:54;;;;;;;;;;;4.50;98.10;;;;;;5099319;28;19928;-79
2022/11/27 02:10:21;;;;;;;;;;;4.50;98.10;;;;;;5095047;28;19932;-79
2022/11/27 02:12:52;;;;;;;;;;;4.50;98.10;;;;;;5110097;27;20719;-79
2022/11/27 02:15:22;;;;;;;;;;;4.50;98.10;;;;;;5105551;28;20299;-79
2022/11/27 02:17:51;;;;;;;;;;;4.50;98.20;;;;;;5106615;28;19934;-79
2022/11/27 02:20:23;;;;;;;;;;;4.50;98.20;;;;;;5104075;28;19927;-78
2022/11/27 02:22:57;;;;;;;;;;;4.50;98.20;;;;;;5102340;28;20592;-78
2022/11/27 02:25:30;;;;;;;;;;;4.50;98.20;;;;;;5107125;28;19966;-77
2022/11/27 02:28:02;;;;;;;;;;;4.40;98.20;;;;;;5102790;28;20377;-78
2022/11/27 02:30:34;;;;;;;;;;;4.40;98.20;;;;;;5110085;28;19932;-78
2022/11/27 02:33:03;;;;;;;;;;;4.40;98.20;;;;;;5108041;28;20001;-78
2022/11/27 02:35:31;;;;;;;;;;;4.40;98.10;;;;;;5096050;28;19932;-78
2022/11/27 02:38:00;;;;;;;;;;;4.40;98.20;;;;;;5098166;28;19939;-79
2022/11/27 02:40:30;;;;;;;;;;;4.40;98.20;;;;;;5094892;28;19928;-79
2022/11/27 02:42:59;;;;;;;;;;;4.30;98.20;;;;;;5103782;28;20503;-79
2022/11/27 02:45:27;;;;;;;;;;;4.30;98.20;;;;;;5105988;28;19932;-78
2022/11/27 02:47:56;;;;;;;;;;;4.30;98.10;;;;;;5108780;28;20042;-79
2022/11/27 02:50:24;;;;;;;;;;;4.30;98.20;;;;;;5103808;28;19935;-79
2022/11/27 02:52:53;;;;;;;;;;;4.30;98.20;;;;;;5106985;28;19928;-77
2022/11/27 02:55:22;;;;;;;;;;;4.30;98.20;;;;;;5101388;28;19928;-77
2022/11/27 02:57:49;;;;;;;;;;;4.20;98.10;;;;;;5108158;28;19928;-78
2022/11/27 03:00:16;;;;;;;;;;;4.20;98.10;;;;;;5105282;28;19939;-78
2022/11/27 03:02:45;;;;;;;;;;;4.20;98.10;;;;;;5105754;28;19928;-78
2022/11/27 03:05:16;;;;;;;;;;;4.20;98.40;;;;;;5109153;28;19934;-79
2022/11/27 03:07:46;;;;;;;;;;;4.20;98.10;;;;;;5107646;28;19924;-78
2022/11/27 03:10:18;;;;;;;;;;;4.20;98.20;;;;;;5095792;28;19932;-79
2022/11/27 03:12:44;;;;;;;;;;;4.20;98.20;;;;;;5101501;28;19931;-79
2022/11/27 03:15:11;;;;;;;;;;;4.20;98.20;;;;;;5100024;28;19950;-79
2022/11/27 03:17:49;;;;;;;;;;;4.20;98.20;;;;;;5107429;28;20303;-80
2022/11/27 03:20:19;;;;;;;;;;;4.20;98.20;;;;;;5110653;28;19934;-79
2022/11/27 03:22:45;;;;;;;;;;;4.10;98.20;;;;;;5106383;28;19932;-78
2022/11/27 03:25:12;;;;;;;;;;;4.10;98.20;;;;;;5096673;28;19931;-79
2022/11/27 03:27:40;;;;;;;;;;;4.10;98.30;;;;;;5099372;28;19927;-78
2022/11/27 03:30:08;;;;;;;;;;;4.10;98.30;;;;;;5107107;28;19939;-79
2022/11/27 03:32:35;;;;;;;;;;;4.10;98.30;;;;;;5107805;28;19927;-80
2022/11/27 03:35:01;;;;;;;;;;;4.10;98.30;;;;;;5104279;28;19935;-79
2022/11/27 03:37:29;;;;;;;;;;;4.10;98.30;;;;;;5102848;28;19938;-79
2022/11/27 03:39:57;;;;;;;;;;;4.10;98.30;;;;;;5101088;28;19932;-78
2022/11/27 03:42:27;;;;;;;;;;;4.10;98.30;;;;;;5101907;28;19939;-80
2022/11/27 03:44:57;;;;;;;;;;;4.10;98.40;;;;;;5106043;28;19932;-79
2022/11/27 03:47:30;;;;;;;;;;;4.10;98.40;;;;;;5102290;28;20400;-79
2022/11/27 03:50:15;;;;;;;;;;;4.10;98.40;;;;;;5106912;28;19931;-79
2022/11/27 03:52:46;;;;;;;;;;;4.10;98.40;;;;;;5105838;28;19972;-79
2022/11/27 03:55:15;;;;;;;;;;;4.10;98.40;;;;;;5107294;28;19927;-78
2022/11/27 03:57:46;;;;;;;;;;;4.10;98.50;;;;;;5101673;28;20064;-79
2022/11/27 04:00:13;;;;;;;;;;;4.10;98.30;;;;;;5100202;28;19927;-79
2022/11/27 04:02:41;;;;;;;;;;;4.10;98.30;;;;;;5103025;28;19928;-79
2022/11/27 04:05:08;;;;;;;;;;;4.00;98.20;;;;;;5108014;28;19927;-79
2022/11/27 04:07:34;;;;;;;;;;;4.10;98.50;;;;;;5104382;28;19927;-79
2022/11/27 04:10:02;;;;;;;;;;;4.10;98.50;;;;;;5106028;28;19930;-79
2022/11/27 04:12:29;;;;;;;;;;;4.10;98.30;;;;;;5109130;27;19934;-78
2022/11/27 04:14:55;;;;;;;;;;;4.00;98.60;;;;;;5108512;28;19932;-79
2022/11/27 04:17:22;;;;;;;;;;;4.00;98.30;;;;;;5104453;28;20523;-79
2022/11/27 04:19:49;;;;;;;;;;;4.00;98.50;;;;;;5102200;28;19950;-79
2022/11/27 04:22:15;;;;;;;;;;;4.00;98.30;;;;;;5104143;28;20692;-79
2022/11/27 04:24:42;;;;;;;;;;;4.00;98.50;;;;;;5102566;28;20362;-79
2022/11/27 04:27:09;;;;;;;;;;;4.00;98.50;;;;;;5100922;28;20319;-78
2022/11/27 04:29:36;;;;;;;;;;;4.00;98.50;;;;;;5087433;28;19939;-78
2022/11/27 04:32:03;;;;;;;;;;;4.00;98.40;;;;;;5081024;28;19973;-78
2022/11/27 04:34:29;;;;;;;;;;;4.00;98.60;;;;;;5084914;28;19928;-79
2022/11/27 04:36:56;;;;;;;;;;;4.00;98.60;;;;;;5082348;28;19939;-79
2022/11/27 04:39:22;;;;;;;;;;;4.00;98.60;;;;;;5085436;28;20057;-79
2022/11/27 04:41:49;;;;;;;;;;;4.00;98.40;;;;;;5080284;28;19935;-79
2022/11/27 04:44:17;;;;;;;;;;;3.90;98.30;;;;;;5083989;28;19928;-78
2022/11/27 04:46:44;;;;;;;;;;;4.00;98.70;;;;;;5079858;28;20010;-79
2022/11/27 04:49:11;;;;;;;;;;;4.00;98.40;;;;;;5081870;28;19928;-78
2022/11/27 04:51:37;;;;;;;;;;;4.00;98.40;;;;;;5082021;28;19939;-79
2022/11/27 04:54:04;;;;;;;;;;;4.00;98.70;;;;;;5086427;28;19935;-78
2022/11/27 04:56:30;;;;;;;;;;;3.90;98.60;;;;;;5081229;28;19928;-78
2022/11/27 04:58:57;;;;;;;;;;;4.00;98.70;;;;;;5076306;28;19928;-79
2022/11/27 05:01:25;;;;;;;;;;;4.00;98.40;;;;;;5073925;28;19939;-80
2022/11/27 05:03:52;;;;;;;;;;;3.80;98.60;;;;;;5060940;28;19933;-79
2022/11/27 05:06:21;;;;;;;;;;;3.90;98.60;;;;;;5062751;28;19928;-79
2022/11/27 05:08:48;;;;;;;;;;;3.90;98.60;;;;;;5064277;28;19994;-78
2022/11/27 05:11:15;;;;;;;;;;;4.00;98.40;;;;;;5068115;28;19932;-79
2022/11/27 05:13:42;;;;;;;;;;;3.90;98.60;;;;;;5067932;28;19939;-78
2022/11/27 05:16:09;;;;;;;;;;;4.30;98.80;;;;;;5062367;28;20301;-78
2022/11/27 05:18:36;;;;;;;;;;;3.90;98.70;;;;;;5060640;28;19925;-79
2022/11/27 05:21:03;;;;;;;;;;;;;;;;;;5058243;28;19929;-78
2022/11/27 05:23:30;;;;;;;;;;;3.90;98.30;;;;;;5061414;28;19936;-78
2022/11/27 05:25:57;;;;;;;;;;;3.90;98.60;;;;;;5062918;28;19940;-80
2022/11/27 05:28:24;;;;;;;;;;;3.80;98.30;;;;;;5063037;28;19932;-80
2022/11/27 05:30:50;;;;;;;;;;;3.90;98.60;;;;;;5066497;28;20388;-79
2022/11/27 05:33:17;;;;;;;;;;;3.90;98.30;;;;;;5060756;28;19928;-79
2022/11/27 05:35:45;;;;;;;;;;;3.80;98.30;;;;;;5061826;28;19939;-79
2022/11/27 05:38:12;;;;;;;;;;;3.90;98.60;;;;;;5059857;28;19936;-80
2022/11/27 05:40:39;;;;;;;;;;;3.90;98.40;;;;;;5060110;28;19932;-79
2022/11/27 05:43:05;;;;;;;;;;;4.00;98.40;;;;;;5063079;28;19928;-79
2022/11/27 05:45:32;;;;;;;;;;;3.90;98.70;;;;;;5060990;28;20024;-80
2022/11/27 05:47:59;;;;;;;;;;;3.80;98.60;;;;;;5081330;28;19933;-79
2022/11/27 05:50:25;;;;;;;;;;;5.50;99.10;;;;;;5074553;28;19928;-79
2022/11/27 05:52:53;;;;;;;;;;;3.90;98.30;;;;;;5086789;28;19934;-79
2022/11/27 05:55:19;;;;;;;;;;;3.90;98.60;;;;;;5078888;28;19931;-79
2022/11/27 05:57:46;;;;;;;;;;;3.90;98.50;;;;;;5083163;28;19928;-79
2022/11/27 06:00:13;;;;;;;;;;;3.80;98.60;;;;;;5086632;28;19939;-79
2022/11/27 06:02:40;;;;;;;;;;;3.80;98.30;;;;;;5085687;28;19928;-78
2022/11/27 06:05:07;;;;;;;;;;;3.80;98.50;;;;;;5081395;28;19936;-79
2022/11/27 06:07:33;;;;;;;;;;;3.80;98.50;;;;;;5082299;28;19932;-79
2022/11/27 06:10:02;;;;;;;;;;;2.90;98.10;;;;;;5077907;28;19932;-78
2022/11/27 06:12:30;;;;;;;;;;;3.80;98.30;;;;;;5079547;28;19928;-78
2022/11/27 06:14:57;;;;;;;;;;;3.80;98.50;;;;;;5076034;28;19928;-79
2022/11/27 06:17:23;;;;;;;;;;;3.80;98.50;;;;;;5084753;28;19935;-79
2022/11/27 06:19:50;;;;;;;;;;;3.80;98.20;;;;;;5076208;28;19954;-79
2022/11/27 06:22:17;;;;;;;;;;;3.80;98.30;;;;;;5082289;28;19975;-78
2022/11/27 06:24:43;;;;;;;;;;;3.70;98.50;;;;;;5078363;28;19935;-78
2022/11/27 06:27:11;;;;;;;;;;;3.80;98.60;;;;;;5082995;28;19932;-79
2022/11/27 06:29:38;;;;;;;;;;;3.80;98.50;;;;;;5093000;28;19932;-79
2022/11/27 06:32:05;;;;;;;;;;;3.80;98.30;;;;;;5100349;28;20288;-78
2022/11/27 06:34:31;;;;;;;;;;;3.80;98.60;;;;;;5100303;28;20387;-79
2022/11/27 06:36:58;;;;;;;;;;;3.80;98.60;;;;;;5103201;28;19947;-78
2022/11/27 06:39:25;;;;;;;;;;;3.80;98.60;;;;;;5114654;28;19928;-78
2022/11/27 06:41:51;;;;;;;;;;;3.80;98.30;;;;;;5107323;28;19928;-77
2022/11/27 06:44:19;;;;;;;;;;;3.80;98.60;;;;;;5102154;28;20007;-80
2022/11/27 06:46:46;;;;;;;;;;;3.80;98.60;;;;;;5107721;28;20038;-78
2022/11/27 06:49:12;;;;;;;;;;;3.70;98.30;;;;;;5101664;28;19928;-78
2022/11/27 06:51:39;;;;;;;;;;;3.80;98.40;;;;;;5109882;28;19927;-79
2022/11/27 06:54:05;;;;;;;;;;;3.60;98.50;;;;;;5101876;28;19935;-79
2022/11/27 06:56:32;;;;;;;;;;;3.70;98.30;;;;;;5098033;28;19928;-78
2022/11/27 06:59:00;;;;;;;;;;;3.70;98.30;;;;;;5109386;27;19939;-79
2022/11/27 07:01:29;;;;;;;;;;;3.80;98.30;;;;;;5099504;27;19935;-79
2022/11/27 07:03:56;;;;;;;;;;;3.40;98.50;;;;;;5107478;27;19932;-79
2022/11/27 07:06:24;;;;;;;;;;;3.70;98.50;;;;;;5101328;27;19928;-79
2022/11/27 07:08:51;;;;;;;;;;;3.70;98.20;;;;;;5107500;28;19931;-78
2022/11/27 07:11:19;;;;;;;;;;;3.70;98.50;;;;;;5106319;27;19932;-80
2022/11/27 07:13:45;;;;;;;;;;;3.70;99.00;;;;;;5101221;27;19949;-80
2022/11/27 07:16:12;;;;;;;;;;;3.60;99.90;;;;;;5095591;28;19989;-79
2022/11/27 07:18:41;;;;;;;;;;;3.70;98.70;;;;;;5109268;27;19940;-79
2022/11/27 07:21:08;;;;;;;;;;;3.70;98.40;;;;;;5105314;28;19936;-79
2022/11/27 07:23:35;;;;;;;;;;;3.70;98.40;;;;;;5100310;28;19932;-79
2022/11/27 07:26:04;;;;;;;;;;;3.70;98.40;;;;;;5102211;28;19931;-79
2022/11/27 07:28:31;;;;;;;;;;;3.70;98.40;;;;;;5091848;27;19939;-79
2022/11/27 07:30:58;;;;;;;;;;;3.70;98.40;;;;;;5077806;28;19932;-79
2022/11/27 07:33:25;;;;;;;;;;;3.70;98.40;;;;;;5079278;28;19936;-78
2022/11/27 07:35:58;;;;;;;;;;;3.70;98.40;;;;;;5076946;28;19928;-78
2022/11/27 07:38:25;;;;;;;;;;;3.70;98.40;;;;;;5083280;28;19936;-79
2022/11/27 07:40:52;;;;;;;;;;;3.70;98.40;;;;;;5080536;28;20330;-80
2022/11/27 07:43:18;;;;;;;;;;;3.60;98.30;;;;;;5085795;28;19928;-80
2022/11/27 07:45:45;;;;;;;;;;;3.70;98.40;;;;;;5083956;28;19932;-79
2022/11/27 07:48:11;;;;;;;;;;;3.70;98.40;;;;;;5082723;28;19928;-79
2022/11/27 07:50:39;;;;;;;;;;;3.60;98.40;;;;;;5078737;28;19947;-79
2022/11/27 07:53:06;;;;;;;;;;;3.70;98.40;;;;;;5079666;28;19937;-80
2022/11/27 07:55:33;;;;;;;;;;;3.60;98.40;;;;;;5074889;28;19928;-79
2022/11/27 07:58:00;;;;;;;;;;;3.70;98.30;;;;;;5078944;28;19939;-79
2022/11/27 08:00:26;;;;;;;;;;;3.70;98.40;;;;;;5082665;28;19928;-79
2022/11/27 08:02:53;;;;;;;;;;;3.60;98.30;;;;;;5085088;28;19932;-79
2022/11/27 08:05:19;;;;;;;;;;;3.70;98.40;;;;;;5083656;28;20692;-79
2022/11/27 08:07:46;;;;;;;;;;;3.70;98.30;;;;;;5082844;28;19927;-80
2022/11/27 08:10:14;;;;;;;;;;;3.70;98.30;;;;;;5087645;28;19928;-80
2022/11/27 08:12:40;;;;;;;;;;;3.70;98.30;;;;;;5084539;28;19932;-78
2022/11/27 08:15:07;;;;;;;;;;;3.70;98.30;;;;;;5080992;28;19928;-79
2022/11/27 08:17:34;;;;;;;;;;;3.70;98.30;;;;;;5083464;28;19931;-79
2022/11/27 08:20:01;;;;;;;;;;;3.70;98.30;;;;;;5084672;28;19928;-79
2022/11/27 08:22:27;;;;;;;;;;;3.60;98.20;;;;;;5085916;28;19935;-79
2022/11/27 08:24:54;;;;;;;;;;;3.60;98.20;;;;;;5079995;28;19928;-79
2022/11/27 08:27:22;;;;;;;;;;;3.70;98.30;;;;;;5080422;28;19928;-79
2022/11/27 08:29:48;;;;;;;;;;;3.60;98.30;;;;;;5082990;28;20403;-79
2022/11/27 08:32:15;;;;;;;;;;;3.60;98.30;;;;;;5081532;28;19935;-79
2022/11/27 08:34:41;;;;;;;;;;;3.70;98.30;;;;;;5080992;28;19940;-79
2022/11/27 08:37:08;;;;;;;;;;;3.60;98.30;;;;;;5080537;28;19939;-79
2022/11/27 08:39:35;;;;;;;;;;;3.70;98.30;;;;;;5077338;28;19929;-79
2022/11/27 08:42:01;;;;;;;;;;;3.60;98.30;;;;;;5077717;28;19928;-80
2022/11/27 08:44:29;;;;;;;;;;;3.60;98.30;;;;;;5071421;28;20433;-79
2022/11/27 08:46:56;;;;;;;;;;;3.70;98.30;;;;;;5076665;28;19928;-79
2022/11/27 08:49:22;;;;;;;;;;;3.70;98.30;;;;;;5078594;28;20414;-79
2022/11/27 08:51:49;;;;;;;;;;;3.70;98.30;;;;;;5080394;28;19932;-79
2022/11/27 08:54:16;;;;;;;;;;;3.70;98.30;;;;;;5078276;28;19935;-80
2022/11/27 08:56:42;;;;;;;;;;;3.70;98.30;;;;;;5076660;28;19928;-79
2022/11/27 08:59:09;;;;;;;;;;;3.70;98.30;;;;;;5080470;28;19932;-78
2022/11/27 09:01:37;;;;;;;;;;;3.70;98.30;;;;;;5076806;28;19928;-79
2022/11/27 09:04:03;;;;;;;;;;;3.70;98.30;;;;;;5081940;28;20046;-79
2022/11/27 09:06:32;;;;;;;;;;;3.70;98.30;;;;;;5080548;28;19928;-79
2022/11/27 09:08:59;;;;;;;;;;;3.70;98.30;;;;;;5078618;28;20063;-79
2022/11/27 09:11:26;;;;;;;;;;;3.70;98.30;;;;;;5078020;28;19935;-78
2022/11/27 09:13:53;;;;;;;;;;;3.70;98.30;;;;;;5078733;28;20388;-79
2022/11/27 09:16:20;;;;;;;;;;;3.80;98.30;;;;;;5076176;28;19939;-79
2022/11/27 09:18:49;;;;;;;;;;;3.80;98.30;;;;;;5078333;28;19955;-79
2022/11/27 09:21:16;;;;;;;;;;;3.80;98.40;;;;;;5072930;28;19932;-79
2022/11/27 09:23:43;;;;;;;;;;;3.80;98.30;;;;;;5074614;28;19932;-78
2022/11/27 09:26:10;;;;;;;;;;;3.80;98.30;;;;;;5072060;28;20621;-79
2022/11/27 09:28:38;;;;;;;;;;;3.90;98.30;;;;;;5075295;28;19928;-79
2022/11/27 09:31:06;;;;;;;;;;;3.90;98.30;;;;;;5078660;28;19943;-78
2022/11/27 09:33:33;;;;;;;;;;;3.90;98.20;;;;;;5077719;28;19928;-77
2022/11/27 09:36:04;;;;;;;;;;;3.90;98.20;;;;;;5070712;28;20061;-77
2022/11/27 09:38:31;;;;;;;;;;;3.90;98.20;;;;;;5075080;28;19928;-77
2022/11/27 09:41:00;;;;;;;;;;;4.00;98.20;;;;;;5071889;28;19932;-77
2022/11/27 09:43:28;;;;;;;;;;;4.00;98.20;;;;;;5077095;28;19928;-78
2022/11/27 09:45:57;;;;;;;;;;;4.00;98.20;;;;;;5074182;28;19938;-78
2022/11/27 09:48:28;;;;;;;;;;;4.00;98.20;;;;;;5073853;28;19935;-77
2022/11/27 09:50:55;;;;;;;;;;;4.00;98.20;;;;;;5075167;28;19932;-78
2022/11/27 09:53:27;;;;;;;;;;;4.00;98.10;;;;;;5076949;28;19932;-77
2022/11/27 09:55:54;;;;;;;;;;;4.10;98.10;;;;;;5074596;28;20367;-78
2022/11/27 09:58:23;;;;;;;;;;;4.10;98.10;;;;;;5077933;28;20822;-77
2022/11/27 10:00:50;;;;;;;;;;;4.10;98.10;;;;;;5070078;28;19951;-77
2022/11/27 10:03:18;;;;;;;;;;;4.10;98.00;;;;;;5080210;28;19928;-78
2022/11/27 10:06:02;;;;;;;;;;;4.10;98.00;;;;;;5073789;28;19942;-78
2022/11/27 10:08:34;;;;;;;;;;;4.10;97.90;;;;;;5072014;28;20002;-80
2022/11/27 10:11:12;;;;;;;;;;;4.20;97.90;;;;;;5079288;28;19928;-79
2022/11/27 10:13:43;;;;;;;;;;;4.20;97.90;;;;;;5079997;28;20672;-80
2022/11/27 10:16:13;;;;;;;;;;;4.20;97.90;;;;;;5073296;28;19928;-78
2022/11/27 10:18:42;;;;;;;;;;;4.20;97.90;;;;;;5076201;28;19943;-79
2022/11/27 10:21:13;;;;;;;;;;;4.30;97.90;;;;;;5079278;28;19928;-79
2022/11/27 10:23:45;;;;;;;;;;;4.30;97.90;;;;;;5080117;28;19931;-78
2022/11/27 10:26:15;;;;;;;;;;;4.30;97.90;;;;;;5076061;28;19928;-80
2022/11/27 10:28:45;;;;;;;;;;;4.30;97.80;;;;;;5089568;28;19931;-79
2022/11/27 10:31:14;;;;;;;;;;;4.40;97.80;;;;;;5101126;28;19971;-79
2022/11/27 10:33:43;;;;;;;;;;;4.40;97.70;;;;;;5103540;27;19927;-80
2022/11/27 10:36:13;;;;;;;;;;;4.40;97.70;;;;;;5107812;27;19935;-79
2022/11/27 10:38:40;;;;;;;;;;;4.50;97.60;;;;;;5106565;27;20017;-79
2022/11/27 10:41:10;;;;;;;;;;;4.50;97.60;;;;;;5098069;27;19956;-79
2022/11/27 10:43:37;;;;;;;;;;;4.50;97.50;;;;;;5106729;28;19928;-79
2022/11/27 10:46:09;;;;;;;;;;;4.60;97.40;;;;;;5108199;27;19962;-79
2022/11/27 10:48:35;;;;;;;;;;;4.60;97.40;;;;;;5108005;28;19927;-79
2022/11/27 10:51:02;;;;;;;;;;;4.60;97.40;;;;;;5106813;27;20040;-79
2022/11/27 10:53:30;;;;;;;;;;;4.60;97.40;;;;;;5104724;27;19932;-78
2022/11/27 10:56:26;;;;;;;;;;;4.70;97.40;;;;;;5103673;27;19935;-78
2022/11/27 10:58:56;;;;;;;;;;;4.70;97.40;;;;;;5096471;27;19935;-79
2022/11/27 11:01:23;;;;;;;;;;;4.70;97.40;;;;;;5100214;28;20015;-79
2022/11/27 11:03:50;;;;;;;;;;;4.70;97.40;;;;;;5108146;27;19927;-79
2022/11/27 11:06:19;;;;;;;;;;;4.70;97.30;;;;;;5101066;28;19928;-78
2022/11/27 11:08:46;;;;;;;;;;;4.70;97.30;;;;;;5107048;28;20512;-79
2022/11/27 11:11:14;;;;;;;;;;;4.70;97.30;;;;;;5102588;27;19928;-79
2022/11/27 11:13:45;;;;;;;;;;;4.70;97.30;;;;;;5102819;28;20387;-80
2022/11/27 11:16:17;;;;;;;;;;;4.80;97.30;;;;;;5099420;27;19975;-78
2022/11/27 11:18:45;;;;;;;;;;;4.80;97.30;;;;;;5104357;27;19934;-78
2022/11/27 11:21:15;;;;;;;;;;;4.80;97.30;;;;;;5100499;27;19928;-78
2022/11/27 11:23:42;;;;;;;;;;;4.90;97.20;;;;;;5097379;27;19935;-79
2022/11/27 11:26:13;;;;;;;;;;;4.90;97.20;;;;;;5096140;28;19937;-78
2022/11/27 11:28:44;;;;;;;;;;;4.90;97.20;;;;;;5102411;27;19928;-78
2022/11/27 11:31:12;;;;;;;;;;;4.90;97.20;;;;;;5100701;27;19928;-80
2022/11/27 11:33:46;;;;;;;;;;;4.90;97.20;;;;;;5097896;28;19946;-80
2022/11/27 11:36:12;;;;;;;;;;;5.00;97.20;;;;;;5096635;27;19928;-79
2022/11/27 11:38:42;;;;;;;;;;;5.00;97.30;;;;;;5099411;28;19939;-80
2022/11/27 11:41:08;;;;;;;;;;;5.00;97.30;;;;;;5103581;27;19931;-78
2022/11/27 11:43:36;;;;;;;;;;;5.10;97.30;;;;;;5095596;28;20333;-79
2022/11/27 11:46:07;;;;;;;;;;;5.10;97.30;;;;;;5101336;27;20512;-78
2022/11/27 11:48:34;;;;;;;;;;;5.00;97.30;;;;;;5102710;27;19928;-79
2022/11/27 11:51:02;;;;;;;;;;;5.10;97.40;;;;;;5099560;27;19927;-78
2022/11/27 11:53:33;;;;;;;;;;;5.10;97.30;;;;;;5093346;28;19958;-79
2022/11/27 11:56:03;;;;;;;;;;;5.10;97.30;;;;;;5104472;28;19955;-79
2022/11/27 11:58:41;;;;;;;;;;;5.10;97.30;;;;;;5113072;27;19939;-79
2022/11/27 12:01:18;;;;;;;;;;;5.10;97.40;;;;;;5102094;27;19932;-80
2022/11/27 12:03:51;;;;;;;;;;;5.20;97.40;;;;;;5104263;27;19936;-78
2022/11/27 12:06:32;;;;;;;;;;;5.20;97.40;;;;;;5096700;28;20393;-80
2022/11/27 12:09:08;;;;;;;;;;;5.20;97.30;;;;;;5095579;28;19931;-79
2022/11/27 12:11:40;;;;;;;;;;;5.30;97.30;;;;;;5097592;28;20666;-79
2022/11/27 12:14:13;;;;;;;;;;;5.30;97.30;;;;;;5105646;27;20296;-79
2022/11/27 12:16:47;;;;;;;;;;;5.30;97.30;;;;;;5099815;28;21008;-79
2022/11/27 12:19:32;;;;;;;;;;;5.30;97.30;;;;;;5095313;28;19928;-79
2022/11/27 12:22:04;;;;;;;;;;;5.40;97.30;;;;;;5095830;28;20410;-79
2022/11/27 12:24:36;;;;;;;;;;;5.40;97.20;;;;;;5106301;27;20394;-79
2022/11/27 12:27:08;;;;;;;;;;;5.50;97.20;;;;;;5103667;28;19935;-79
2022/11/27 12:29:50;;;;;;;;;;;5.60;97.20;;;;;;5099877;27;19928;-79
2022/11/27 12:32:28;;;;;;;;;;;5.60;97.20;;;;;;5105197;27;19931;-79
2022/11/27 12:34:59;;;;;;;;;;;5.70;97.10;;;;;;5100047;27;20037;-79
2022/11/27 12:37:32;;;;;;;;;;;5.70;97.00;;;;;;5097678;27;19935;-78
2022/11/27 12:40:06;;;;;;;;;;;5.70;96.90;;;;;;5097619;27;20022;-79
2022/11/27 12:42:34;;;;;;;;;;;5.80;96.90;;;;;;5095907;28;19968;-79
2022/11/27 12:45:04;;;;;;;;;;;5.80;96.90;;;;;;5099611;27;20384;-79
2022/11/27 12:47:37;;;;;;;;;;;5.80;96.90;;;;;;5092759;28;19928;-80
2022/11/27 12:50:07;;;;;;;;;;;5.80;96.90;;;;;;5100585;27;19984;-79
2022/11/27 12:52:37;;;;;;;;;;;5.80;96.90;;;;;;5096436;28;19928;-79
2022/11/27 12:55:05;;;;;;;;;;;5.80;96.90;;;;;;5097122;28;19931;-79
2022/11/27 12:57:36;;;;;;;;;;;5.90;97.00;;;;;;5102585;27;19943;-77
2022/11/27 13:00:04;;;;;;;;;;;5.80;96.90;;;;;;5098361;27;19930;-79
2022/11/27 13:02:35;;;;;;;;;;;5.80;97.00;;;;;;5097671;27;19928;-79
2022/11/27 13:05:04;;;;;;;;;;;5.80;97.00;;;;;;5100774;27;19928;-78
2022/11/27 13:07:38;;;;;;;;;;;5.80;97.00;;;;;;5097928;28;20014;-78
2022/11/27 13:10:09;;;;;;;;;;;5.80;97.00;;;;;;5096755;27;20027;-79
2022/11/27 13:12:38;;;;;;;;;;;5.80;97.00;;;;;;5099174;27;19939;-77
2022/11/27 13:15:07;;;;;;;;;;;5.80;97.00;;;;;;5100587;27;19931;-78
2022/11/27 13:17:37;;;;;;;;;;;5.80;97.10;;;;;;5077641;28;20414;-79
2022/11/27 13:20:05;;;;;;;;;;;5.80;97.10;;;;;;5078509;28;19928;-78
2022/11/27 13:22:34;;;;;;;;;;;5.80;97.10;;;;;;5079923;28;20014;-78
2022/11/27 13:25:02;;;;;;;;;;;5.80;97.10;;;;;;5072276;28;20558;-78
2022/11/27 13:27:29;;;;;;;;;;;5.80;97.10;;;;;;5071925;28;19928;-79
2022/11/27 13:29:57;;;;;;;;;;;5.70;97.10;;;;;;5057812;28;19928;-79
2022/11/27 13:32:25;;;;;;;;;;;5.80;97.20;;;;;;5051316;28;19928;-78
2022/11/27 13:34:55;;;;;;;;;;;5.80;97.20;;;;;;5054432;28;19929;-78
2022/11/27 13:37:27;;;;;;;;;;;5.80;97.30;;;;;;5053908;28;21335;-79
2022/11/27 13:39:58;;;;;;;;;;;5.70;97.30;;;;;;5057336;28;19933;-79
2022/11/27 13:42:27;;;;;;;;;;;5.80;97.30;;;;;;5052352;28;20414;-78
2022/11/27 13:44:55;;;;;;;;;;;5.70;97.30;;;;;;5050590;28;19987;-80
2022/11/27 13:47:23;;;;;;;;;;;5.70;97.30;;;;;;5053278;28;19935;-78
2022/11/27 13:50:00;;;;;;;;;;;5.70;97.40;;;;;;5051456;28;19943;-78
2022/11/27 13:52:28;;;;;;;;;;;5.80;97.40;;;;;;5055982;28;19928;-79
2022/11/27 13:54:56;;;;;;;;;;;5.70;98.00;;;;;;5056030;28;19940;-79
2022/11/27 13:57:23;;;;;;;;;;;5.50;97.50;;;;;;5049255;28;19929;-78
2022/11/27 13:59:56;;;;;;;;;;;5.70;97.60;;;;;;5057402;28;19944;-78
2022/11/27 14:02:24;;;;;;;;;;;5.70;97.20;;;;;;5051426;28;19999;-79
2022/11/27 14:04:51;;;;;;;;;;;5.70;97.50;;;;;;5051959;28;19928;-78
2022/11/27 14:07:19;;;;;;;;;;;5.70;97.50;;;;;;5056270;28;19929;-79
2022/11/27 14:09:47;;;;;;;;;;;5.70;97.50;;;;;;5048048;28;19936;-79
2022/11/27 14:12:16;;;;;;;;;;;5.70;97.50;;;;;;5048311;28;19980;-78
2022/11/27 14:14:43;;;;;;;;;;;5.70;97.50;;;;;;5052595;28;19929;-78
2022/11/27 14:17:23;;;;;;;;;;;5.70;97.50;;;;;;5055058;28;19933;-78
2022/11/27 14:19:59;;;;;;;;;;;5.80;97.50;;;;;;5062825;28;19928;-78
2022/11/27 14:22:34;;;;;;;;;;;5.70;97.30;;;;;;5049133;28;19936;-79
2022/11/27 14:25:00;;;;;;;;;;;5.80;97.60;;;;;;5051901;28;19932;-78
2022/11/27 14:27:32;;;;;;;;;;;5.70;97.50;;;;;;5055984;28;19935;-79
2022/11/27 14:30:10;;;;;;;;;;;5.80;97.60;;;;;;5052154;28;19939;-78
2022/11/27 14:32:37;;;;;;;;;;;5.80;97.30;;;;;;5045760;28;19928;-78
2022/11/27 14:35:04;;;;;;;;;;;5.70;97.50;;;;;;5047127;28;20458;-79
2022/11/27 14:37:32;;;;;;;;;;;5.80;97.60;;;;;;5050266;28;20031;-79